createdAt,value
2022-08-05T00:04:56.800Z,16.80
2022-08-05T00:09:58.317Z,16.77
2022-08-05T00:15:00.304Z,16.76
2022-08-05T00:20:21.807Z,16.66
2022-08-05T00:25:23.323Z,16.60
2022-08-05T00:30:29.038Z,16.53
2022-08-05T00:35:33.613Z,16.62
2022-08-05T00:40:53.256Z,16.62
2022-08-05T00:45:55.310Z,16.61
2022-08-05T00:50:56.935Z,16.67
2022-08-05T00:55:58.493Z,16.65
2022-08-05T01:01:00.101Z,16.54
2022-08-05T01:06:03.762Z,16.53
2022-08-05T01:11:13.602Z,16.50
2022-08-05T01:16:30.620Z,16.51
2022-08-05T01:21:44.442Z,16.62
2022-08-05T01:27:23.917Z,16.69
2022-08-05T01:32:30.326Z,16.56
2022-08-05T01:37:36.553Z,16.45
2022-08-05T01:42:40.986Z,16.33
2022-08-05T01:47:43.931Z,16.38
2022-08-05T01:52:49.692Z,16.28
2022-08-05T01:58:09.771Z,16.30
2022-08-05T02:03:37.608Z,16.18
2022-08-05T02:08:55.036Z,16.19
2022-08-05T02:14:12.437Z,16.19
2022-08-05T02:19:20.219Z,16.03
2022-08-05T02:24:31.225Z,15.97
2022-08-05T02:29:59.233Z,15.92
2022-08-05T02:35:02.169Z,15.94
2022-08-05T02:40:12.919Z,15.94
2022-08-05T02:45:16.322Z,16.04
2022-08-05T02:50:18.962Z,15.95
2022-08-05T02:55:53.912Z,15.95
2022-08-05T03:00:46.141Z,15.89
2022-08-05T03:06:55.961Z,15.94
2022-08-05T03:11:54.979Z,15.80
2022-08-05T03:16:43.492Z,15.85
2022-08-05T03:21:48.929Z,15.83
2022-08-05T03:26:51.304Z,15.81
2022-08-05T03:31:55.551Z,15.74
2022-08-05T03:36:59.063Z,15.70
2022-08-05T03:42:00.642Z,15.67
2022-08-05T03:47:03.636Z,15.65
2022-08-05T03:52:37.775Z,15.58
2022-08-05T03:57:42.295Z,15.55
2022-08-05T04:02:57.672Z,15.54
2022-08-05T04:08:14.745Z,15.46
2022-08-05T04:13:51.123Z,15.45
2022-08-05T04:18:54.477Z,15.48
2022-08-05T04:24:06.211Z,15.45
2022-08-05T04:29:08.673Z,15.48
2022-08-05T04:34:19.274Z,15.52
2022-08-05T04:39:35.215Z,15.48
2022-08-05T04:44:37.507Z,15.38
2022-08-05T04:50:01.782Z,15.31
2022-08-05T04:55:05.311Z,15.21
2022-08-05T05:00:16.866Z,15.18
2022-08-05T05:05:28.167Z,15.19
2022-08-05T05:10:33.256Z,15.43
2022-08-05T05:15:56.481Z,15.69
2022-08-05T05:20:56.858Z,15.79
2022-08-05T05:26:00.187Z,15.76
2022-08-05T05:31:02.363Z,15.81
2022-08-05T05:36:07.850Z,15.68
2022-08-05T05:41:12.197Z,15.65
2022-08-05T05:46:18.909Z,15.64
2022-08-05T05:51:25.519Z,15.67
2022-08-05T05:56:32.271Z,15.74
2022-08-05T06:01:38.957Z,15.81
2022-08-05T06:06:47.570Z,15.92
2022-08-05T06:12:01.054Z,16.19
2022-08-05T06:17:22.271Z,16.50
2022-08-05T06:22:30.455Z,16.76
2022-08-05T06:28:12.790Z,16.96
2022-08-05T06:32:57.492Z,17.20
2022-08-05T06:38:03.054Z,17.50
2022-08-05T06:43:57.478Z,17.47
2022-08-05T06:48:55.494Z,17.43
2022-08-05T06:54:02.627Z,17.21
2022-08-05T06:59:09.474Z,17.03
2022-08-05T07:04:13.997Z,16.92
2022-08-05T07:09:15.789Z,16.84
2022-08-05T07:14:37.178Z,16.80
2022-08-05T07:25:23.450Z,16.82
2022-08-05T07:30:30.244Z,16.93
2022-08-05T07:36:02.939Z,16.99
2022-08-05T07:41:04.418Z,16.97
2022-08-05T07:46:24.304Z,17.14
2022-08-05T07:51:36.821Z,17.19
2022-08-05T07:57:02.422Z,17.35
2022-08-05T08:02:04.061Z,17.41
2022-08-05T08:07:07.338Z,17.35
2022-08-05T08:12:19.056Z,17.34
2022-08-05T08:17:32.253Z,17.44
2022-08-05T08:22:34.122Z,17.61
2022-08-05T08:27:44.858Z,17.71
2022-08-05T08:32:49.284Z,17.89
2022-08-05T08:37:53.608Z,18.03
2022-08-05T08:45:16.839Z,18.17
2022-08-05T08:48:41.599Z,18.23
2022-08-05T08:53:45.153Z,18.11
2022-08-05T08:58:48.521Z,18.24
2022-08-05T09:03:55.402Z,18.49
2022-08-05T09:09:01.114Z,18.67
2022-08-05T09:14:54.111Z,18.66
2022-08-05T09:19:28.002Z,18.58
2022-08-05T09:24:38.036Z,18.66
2022-08-05T09:29:48.051Z,18.73
2022-08-05T09:34:59.900Z,19.00
2022-08-05T09:40:04.672Z,19.09
2022-08-05T09:46:04.982Z,19.12
2022-08-05T09:50:44.820Z,18.97
2022-08-05T09:55:56.562Z,19.15
2022-08-05T10:01:14.678Z,19.37
2022-08-05T10:06:19.518Z,19.18
2022-08-05T10:11:22.906Z,19.04
2022-08-05T10:16:38.050Z,19.02
2022-08-05T10:21:53.985Z,19.18
2022-08-05T10:27:00.647Z,19.09
2022-08-05T10:32:53.400Z,18.75
2022-08-05T10:37:26.731Z,18.79
2022-08-05T10:42:47.734Z,18.76
2022-08-05T10:48:27.630Z,18.78
2022-08-05T10:53:49.986Z,18.85
2022-08-05T10:58:54.682Z,18.77
2022-08-05T11:04:03.247Z,18.85
2022-08-05T11:09:16.399Z,18.90
2022-08-05T11:14:57.835Z,19.13
2022-08-05T11:20:17.072Z,19.16
2022-08-05T11:26:05.242Z,19.40
2022-08-05T11:30:58.558Z,19.41
2022-08-05T11:36:08.686Z,19.39
2022-08-05T11:41:54.420Z,19.35
2022-08-05T11:46:58.682Z,19.55
2022-08-05T11:52:11.129Z,19.65
2022-08-05T11:57:25.883Z,19.63
2022-08-05T12:02:32.984Z,20.06
2022-08-05T12:08:08.620Z,19.99
2022-08-05T12:13:15.839Z,20.11
2022-08-05T12:18:33.061Z,20.13
2022-08-05T12:23:35.050Z,19.76
2022-08-05T12:28:44.820Z,19.60
2022-08-05T12:33:49.091Z,19.57
2022-08-05T12:38:51.332Z,19.88
2022-08-05T12:43:57.583Z,19.93
2022-08-05T12:49:12.934Z,19.75
2022-08-05T12:54:31.843Z,20.06
2022-08-05T13:00:09.075Z,20.65
2022-08-05T13:05:07.069Z,22.03
2022-08-05T13:10:19.940Z,22.19
2022-08-05T13:15:36.111Z,22.30
2022-08-05T13:20:44.118Z,23.04
2022-08-05T13:25:58.943Z,23.48
2022-08-05T13:31:03.322Z,22.91
2022-08-05T13:36:14.347Z,22.17
2022-08-05T13:41:16.599Z,21.81
2022-08-05T13:46:35.796Z,22.29
2022-08-05T13:51:46.578Z,22.93
2022-08-05T13:56:51.462Z,23.04
2022-08-05T14:02:00.024Z,23.14
2022-08-05T14:07:12.041Z,21.91
2022-08-05T14:12:32.264Z,21.61
2022-08-05T14:17:34.951Z,21.18
2022-08-05T14:22:37.120Z,20.96
2022-08-05T14:27:38.705Z,20.76
2022-08-05T14:32:49.133Z,20.68
2022-08-05T14:37:55.441Z,20.48
2022-08-05T14:42:57.561Z,20.14
2022-08-05T14:48:05.427Z,19.93
2022-08-05T14:53:08.072Z,19.82
2022-08-05T14:58:13.919Z,19.63
2022-08-05T15:03:15.847Z,19.44
2022-08-05T15:08:58.341Z,19.08
2022-08-05T15:13:46.069Z,19.25
2022-08-05T15:18:49.388Z,19.74
2022-08-05T15:23:50.983Z,19.59
2022-08-05T15:28:53.088Z,19.39
2022-08-05T15:34:05.722Z,19.47
2022-08-05T15:40:58.491Z,19.87
2022-08-05T15:44:41.499Z,20.46
2022-08-05T15:49:55.173Z,20.42
2022-08-05T15:55:00.821Z,20.63
2022-08-05T16:00:08.723Z,20.22
2022-08-05T16:05:11.394Z,20.03
2022-08-05T16:10:13.173Z,19.56
2022-08-05T16:15:18.566Z,19.51
2022-08-05T16:20:20.636Z,19.39
2022-08-05T16:25:22.278Z,19.19
2022-08-05T16:30:36.101Z,19.17
2022-08-05T16:35:42.276Z,18.72
2022-08-05T16:40:52.164Z,18.41
2022-08-05T16:46:07.464Z,17.86
2022-08-05T16:51:20.700Z,17.48
2022-08-05T16:56:24.310Z,17.57
2022-08-05T17:01:26.089Z,17.74
2022-08-05T17:06:28.826Z,17.71
2022-08-05T17:11:31.209Z,17.62
2022-08-05T17:16:48.545Z,17.23
2022-08-05T17:21:55.541Z,16.96
2022-08-05T17:26:58.524Z,16.71
2022-08-05T17:32:00.177Z,16.65
2022-08-05T17:37:02.726Z,16.51
2022-08-05T17:42:28.553Z,16.34
2022-08-05T17:47:28.627Z,16.21
2022-08-05T17:52:33.555Z,16.09
2022-08-05T17:57:35.068Z,16.05
2022-08-05T18:02:39.456Z,15.96
2022-08-05T18:07:42.397Z,15.93
2022-08-05T18:12:44.178Z,16.08
2022-08-05T18:17:58.812Z,16.13
2022-08-05T18:23:09.210Z,16.02
2022-08-05T18:28:16.247Z,16.07
2022-08-05T18:33:22.550Z,15.97
2022-08-05T18:38:25.985Z,15.88
2022-08-05T18:43:31.632Z,15.59
2022-08-05T18:48:41.801Z,15.32
2022-08-05T18:53:50.197Z,15.21
2022-08-05T18:58:54.705Z,15.10
2022-08-05T19:03:56.739Z,14.96
2022-08-05T19:08:58.351Z,14.82
2022-08-05T19:14:19.980Z,14.60
2022-08-05T19:19:24.865Z,14.57
2022-08-05T19:24:34.527Z,14.37
2022-08-05T19:29:37.165Z,14.37
2022-08-05T19:34:40.628Z,14.27
2022-08-05T19:39:45.501Z,14.06
2022-08-05T19:44:53.836Z,14.06
2022-08-05T19:50:00.791Z,13.99
2022-08-05T19:55:07.553Z,13.86
2022-08-05T20:00:24.327Z,13.83
2022-08-05T20:05:26.530Z,13.78
2022-08-05T20:10:45.095Z,13.73
2022-08-05T20:15:57.641Z,13.53
2022-08-05T20:20:59.972Z,13.50
2022-08-05T20:26:02.726Z,13.30
2022-08-05T20:31:04.669Z,13.27
2022-08-05T20:36:06.658Z,13.18
2022-08-05T20:41:11.721Z,13.05
2022-08-05T20:46:25.617Z,12.91
2022-08-05T20:51:27.944Z,12.88
2022-08-05T20:56:34.092Z,12.87
2022-08-05T21:01:37.563Z,12.76
2022-08-05T21:06:45.337Z,12.74
2022-08-05T21:12:10.241Z,12.66
2022-08-05T21:17:09.545Z,12.61
2022-08-05T21:22:11.094Z,12.63
2022-08-05T21:27:13.436Z,12.52
2022-08-05T21:32:19.772Z,12.32
2022-08-05T21:37:21.801Z,12.39
2022-08-05T21:42:41.473Z,12.35
2022-08-05T21:47:56.924Z,12.34
2022-08-05T21:53:08.482Z,12.37
2022-08-05T21:58:19.297Z,12.32
2022-08-05T22:03:53.243Z,12.23
2022-08-05T22:08:42.990Z,12.12
2022-08-05T22:14:05.829Z,12.15
2022-08-05T22:19:15.941Z,12.18
2022-08-05T22:24:52.230Z,12.16
2022-08-05T22:29:54.402Z,12.06
2022-08-05T22:34:55.925Z,11.98
2022-08-05T22:39:57.532Z,11.88
2022-08-05T22:44:59.761Z,11.77
2022-08-05T22:50:20.155Z,11.75
2022-08-05T22:55:24.081Z,11.75
2022-08-05T23:00:28.254Z,11.67
2022-08-05T23:05:36.156Z,11.65
2022-08-05T23:10:38.313Z,11.61
2022-08-05T23:15:40.619Z,11.53
2022-08-05T23:20:43.046Z,11.54
2022-08-05T23:25:51.863Z,11.50
2022-08-05T23:30:56.016Z,11.49
2022-08-05T23:36:16.295Z,11.46
2022-08-05T23:41:17.951Z,11.35
2022-08-05T23:46:21.995Z,11.30
2022-08-05T23:51:23.827Z,11.22
2022-08-05T23:56:27.277Z,11.14
